Time;durP1;ratioP1;P1;durP2;ratioP2;P2;SDS_P1;SDS_P2;PMS_P1;PMS_P2;Temp;Humidity;BMP_temperature;BMP_pressure;BME280_temperature;BME280_humidity;BME280_pressure;Samples;Min_cycle;Max_cycle;Signal;HPM_P1;HPM_P2
2023/07/10 13:14:28;;;;;;;6.63;4.72;;;;;;;31.56;24.81;99115.72;5103980;27;20689;-68
2023/07/10 13:16:55;;;;;;;5.63;4.63;;;;;;;31.37;26.54;99102.22;5103335;28;20048;-67
2023/07/10 13:19:22;;;;;;;7.00;4.35;;;;;;;31.24;26.89;99112.25;5103282;28;20045;-67
2023/07/10 13:21:48;;;;;;;7.13;4.80;;;;;;;31.52;25.21;99105.47;5103115;28;20086;-68
2023/07/10 13:24:15;;;;;;;5.18;4.63;;;;;;;31.59;24.72;99107.06;5103089;28;20097;-69
2023/07/10 13:26:45;;;;;;;8.68;4.40;;;;;;;31.61;25.17;99096.72;5102731;28;20052;-68
2023/07/10 13:29:14;;;;;;;6.80;5.05;;;;;;;31.62;25.42;99105.78;5102368;28;20055;-68
2023/07/10 13:31:45;;;;;;;6.38;4.88;;;;;;;31.69;24.93;99100.22;5103003;28;20052;-68
2023/07/10 13:34:13;;;;;;;9.27;4.80;;;;;;;31.57;24.98;99067.28;5102682;28;20235;-67
2023/07/10 13:36:40;;;;;;;6.32;4.95;;;;;;;31.83;24.97;99096.31;5104696;28;20050;-68
2023/07/10 13:39:12;;;;;;;5.68;4.45;;;;;;;31.81;25.10;99090.22;5103265;28;20040;-69
2023/07/10 13:41:39;;;;;;;6.03;4.80;;;;;;;31.80;25.93;99085.81;5101658;28;20108;-69
2023/07/10 13:44:06;;;;;;;6.75;4.82;;;;;;;31.66;25.22;99086.97;5102652;28;20036;-70
2023/07/10 13:46:33;;;;;;;5.85;4.53;;;;;;;31.70;25.14;99099.16;5103082;28;20101;-69
2023/07/10 13:49:04;;;;;;;7.65;4.05;;;;;;;31.80;21.85;99116.78;5102424;28;20289;-69
2023/07/10 13:51:32;;;;;;;8.60;4.00;;;;;;;31.77;20.93;99110.91;5102289;28;20044;-68
2023/07/10 13:54:00;;;;;;;7.68;4.50;;;;;;;31.70;21.78;99110.13;5102576;28;20051;-68
2023/07/10 13:56:31;;;;;;;5.43;3.92;;;;;;;31.72;22.66;99119.78;5102258;28;20055;-68
2023/07/10 13:58:59;;;;;;;9.60;4.55;;;;;;;31.74;21.55;99125.88;5102809;28;20037;-69
2023/07/10 14:01:26;;;;;;;7.15;4.35;;;;;;;31.55;21.47;99121.44;5102130;28;20058;-69
2023/07/10 14:03:54;;;;;;;7.82;4.72;;;;;;;31.70;21.32;99129.28;5102443;28;20040;-69
2023/07/10 14:06:37;;;;;;;5.05;4.30;;;;;;;31.59;20.76;99128.13;5102370;28;20090;-68
2023/07/10 14:09:07;;;;;;;6.75;4.75;;;;;;;31.53;21.38;99132.63;5102398;28;20063;-69
2023/07/10 14:11:34;;;;;;;4.85;3.67;;;;;;;31.53;20.88;99120.81;5101910;28;20040;-69
2023/07/10 14:14:00;;;;;;;6.20;3.97;;;;;;;31.60;20.54;99127.91;5102153;28;20044;-69
2023/07/10 14:16:29;;;;;;;5.63;3.58;;;;;;;31.28;20.84;99090.72;5101923;28;20052;-68
2023/07/10 14:18:58;;;;;;;6.47;3.78;;;;;;;31.59;20.40;99139.09;5102355;28;20098;-69
2023/07/10 14:21:25;;;;;;;6.22;3.63;;;;;;;31.46;21.78;99122.78;5102089;28;20040;-70
2023/07/10 14:23:53;;;;;;;6.38;4.50;;;;;;;31.63;22.23;99177.84;5098785;28;20106;-70
2023/07/10 14:26:23;;;;;;;8.90;4.85;;;;;;;31.63;23.99;99191.53;5088548;28;20316;-70
2023/07/10 14:28:51;;;;;;;8.35;5.15;;;;;;;31.51;26.75;99205.13;5088033;28;20041;-70
2023/07/10 14:31:19;;;;;;;16.65;6.32;;;;;;;31.18;30.35;99192.47;5087964;28;20040;-70
2023/07/10 14:33:47;;;;;;;16.85;5.75;;;;;;;30.83;31.41;99172.09;5088526;28;20185;-70
2023/07/10 14:36:15;;;;;;;12.57;6.82;;;;;;;31.13;31.30;99227.06;5087848;28;20044;-70
2023/07/10 14:38:42;;;;;;;12.00;7.03;;;;;;;31.02;32.32;99231.34;5088140;28;20105;-70
2023/07/10 14:41:14;;;;;;;16.95;7.22;;;;;;;30.90;32.81;99242.13;5088858;28;20036;-70
2023/07/10 14:43:43;;;;;;;11.20;6.50;;;;;;;30.79;32.99;99234.63;5087933;28;20044;-70
2023/07/10 14:46:15;;;;;;;13.10;6.68;;;;;;;30.67;33.57;99233.59;5088358;28;20247;-70
2023/07/10 14:48:43;;;;;;;11.98;5.65;;;;;;;30.58;33.98;99234.88;5088192;28;20105;-70
2023/07/10 14:51:10;;;;;;;9.63;6.05;;;;;;;30.04;33.52;99163.09;5087982;28;20052;-70
2023/07/10 14:53:37;;;;;;;15.57;6.13;;;;;;;28.81;34.20;98966.53;5087890;28;20051;-70
2023/07/10 14:56:06;;;;;;;15.23;6.35;;;;;;;30.46;34.95;99253.88;5087648;28;20045;-70
2023/07/10 14:58:34;;;;;;;8.57;6.03;;;;;;;30.41;34.50;99252.81;5087637;28;20052;-70
2023/07/10 15:01:01;;;;;;;9.73;5.88;;;;;;;30.19;35.62;99253.06;5088054;28;20297;-70
2023/07/10 15:03:27;;;;;;;8.23;5.28;;;;;;;29.97;35.98;99249.72;5086569;28;20036;-69
2023/07/10 15:05:56;;;;;;;10.48;6.07;;;;;;;29.87;36.22;99259.38;5087910;28;20056;-69
2023/07/10 15:08:28;;;;;;;5.95;5.35;;;;;;;29.96;35.89;99258.94;5087275;28;20040;-70
2023/07/10 15:10:55;;;;;;;7.20;5.88;;;;;;;29.64;37.19;99254.34;5087009;28;20052;-70
2023/07/10 15:13:23;;;;;;;15.55;6.35;;;;;;;29.78;36.54;99261.50;5086920;28;20053;-70
2023/07/10 15:15:52;;;;;;;7.70;6.30;;;;;;;29.83;36.33;99258.13;5087503;28;20079;-70
2023/07/10 15:18:22;;;;;;;7.97;5.63;;;;;;;29.65;37.23;99247.84;5087316;28;20044;-70
2023/07/10 15:20:49;;;;;;;6.78;5.43;;;;;;;29.75;37.11;99250.16;5086488;28;20398;-69
2023/07/10 15:23:20;;;;;;;7.05;6.18;;;;;;;29.62;37.30;99243.63;5086513;28;20235;-70
2023/07/10 15:25:48;;;;;;;7.90;6.88;;;;;;;29.51;37.69;99241.50;5087559;28;20216;-70
2023/07/10 15:28:14;;;;;;;7.45;6.45;;;;;;;29.69;37.10;99239.00;5087480;28;20044;-70
2023/07/10 15:30:41;;;;;;;14.68;7.50;;;;;;;29.23;38.39;99191.72;5086891;28;20052;-70
2023/07/10 15:33:13;;;;;;;12.38;7.60;;;;;;;29.54;38.08;99237.50;5087085;28;20041;-69
2023/07/10 15:35:41;;;;;;;11.27;6.60;;;;;;;28.95;38.67;99150.94;5086033;28;20044;-70
2023/07/10 15:38:13;;;;;;;7.25;5.93;;;;;;;28.89;39.35;99220.78;5086634;28;20075;-70
2023/07/10 15:40:40;;;;;;;7.20;6.22;;;;;;;29.00;39.35;99216.63;5086823;28;20093;-70
2023/07/10 15:43:21;;;;;;;8.82;6.38;;;;;;;28.85;39.32;99219.53;5087209;28;20051;-70
2023/07/10 15:45:48;;;;;;;5.78;4.78;;;;;;;29.11;38.92;99218.78;5086413;28;20040;-70
2023/07/10 15:48:16;;;;;;;9.07;5.90;;;;;;;29.12;38.72;99200.53;5086753;28;20201;-69
2023/07/10 15:50:43;;;;;;;7.78;6.05;;;;;;;29.22;38.49;99212.72;5086673;28;20040;-69
2023/07/10 15:53:17;;;;;;;7.63;6.18;;;;;;;29.10;38.30;99206.19;5086887;28;20040;-70
2023/07/10 15:55:44;;;;;;;9.45;7.38;;;;;;;29.08;38.58;99203.66;5086586;28;20045;-69
2023/07/10 15:58:16;;;;;;;9.32;8.32;;;;;;;28.81;38.43;99160.16;5085306;28;20086;-69
2023/07/10 16:00:45;;;;;;;9.00;6.40;;;;;;;29.09;38.59;99190.88;5086217;28;20047;-69
2023/07/10 16:03:25;;;;;;;7.82;6.47;;;;;;;29.13;38.32;99178.47;5086453;28;20303;-67
2023/07/10 16:05:54;;;;;;;8.50;5.70;;;;;;;29.07;37.95;99176.59;5086355;28;20047;-68
2023/07/10 16:08:23;;;;;;;9.32;6.30;;;;;;;28.93;37.77;99150.31;5086536;28;20048;-68
2023/07/10 16:10:54;;;;;;;7.57;6.53;;;;;;;29.01;38.22;99171.97;5086269;28;20040;-68
2023/07/10 16:13:23;;;;;;;9.07;6.05;;;;;;;29.07;37.97;99169.25;5085814;28;20075;-67
2023/07/10 16:15:50;;;;;;;15.23;7.03;;;;;;;29.00;38.81;99168.38;5086214;28;20064;-68
2023/07/10 16:18:25;;;;;;;6.55;5.85;;;;;;;29.10;38.09;99178.06;5086076;28;20047;-67
2023/07/10 16:20:52;;;;;;;8.88;5.13;;;;;;;29.04;38.31;99180.56;5086161;28;20382;-67
2023/07/10 16:23:26;;;;;;;7.70;5.07;;;;;;;28.90;38.46;99169.81;5086628;28;20036;-67
2023/07/10 16:25:53;;;;;;;7.60;5.45;;;;;;;28.94;38.90;99191.00;5086540;28;20244;-68
2023/07/10 16:28:23;;;;;;;7.22;5.55;;;;;;;29.00;38.30;99186.63;5085974;28;20048;-68
2023/07/10 16:30:51;;;;;;;6.78;5.53;;;;;;;28.87;39.17;99192.06;5085938;28;20070;-67
2023/07/10 16:33:20;;;;;;;7.57;5.70;;;;;;;28.76;38.89;99186.16;5085932;28;20049;-68
2023/07/10 16:35:54;;;;;;;7.43;5.60;;;;;;;28.50;39.48;99204.31;5085818;28;20318;-68
2023/07/10 16:38:23;;;;;;;6.63;5.80;;;;;;;28.18;38.80;99134.97;5085777;28;20048;-68
2023/07/10 16:40:51;;;;;;;9.32;5.00;;;;;;;28.58;38.85;99198.66;5085801;28;20044;-67
2023/07/10 16:43:20;;;;;;;7.22;5.75;;;;;;;28.53;38.91;99199.28;5085697;28;20040;-66
2023/07/10 16:45:49;;;;;;;6.05;5.22;;;;;;;28.57;38.79;99188.81;5086035;28;20052;-69
2023/07/10 16:48:17;;;;;;;6.43;5.65;;;;;;;28.68;38.57;99189.06;5085836;28;20044;-68
2023/07/10 16:50:45;;;;;;;6.70;5.85;;;;;;;28.60;39.02;99178.34;5086327;28;20090;-68
2023/07/10 16:53:40;;;;;;;7.97;6.57;;;;;;;28.49;38.71;99184.38;5085536;28;20090;-69
2023/07/10 16:56:08;;;;;;;7.53;5.68;;;;;;;28.55;39.16;99186.28;5085617;28;20049;-68
2023/07/10 16:58:37;;;;;;;9.05;5.63;;;;;;;27.92;38.83;99081.22;5085696;28;20060;-68
2023/07/10 17:01:16;;;;;;;8.48;5.80;;;;;;;28.54;38.41;99181.88;5085972;28;20032;-68
2023/07/10 17:03:42;;;;;;;31.40;12.45;;;;;;;28.32;43.04;99189.31;5085742;28;20245;-68
2023/07/10 17:06:13;;;;;;;9.25;7.22;;;;;;;28.53;41.13;99191.09;5085594;28;20048;-68
2023/07/10 17:08:41;;;;;;;8.20;6.32;;;;;;;28.54;40.37;99184.59;5085588;28;20056;-68
2023/07/10 17:11:10;;;;;;;6.50;5.40;;;;;;;28.30;39.72;99182.38;5085762;28;20074;-68
2023/07/10 17:13:39;;;;;;;7.95;5.85;;;;;;;28.31;39.32;99181.34;5085605;28;20056;-68
2023/07/10 17:16:06;;;;;;;9.80;6.38;;;;;;;28.42;38.58;99175.31;5084976;28;20093;-68
2023/07/10 17:18:33;;;;;;;8.48;5.68;;;;;;;28.36;39.01;99163.34;5085315;28;20098;-68
2023/07/10 17:21:03;;;;;;;6.53;5.20;;;;;;;28.41;39.07;99169.00;5085706;28;20045;-67
2023/07/10 17:23:31;;;;;;;6.53;5.38;;;;;;;28.19;38.60;99120.28;5085896;28;20102;-68
2023/07/10 17:26:00;;;;;;;8.70;7.82;;;;;;;28.41;38.73;99160.84;5085639;28;20036;-68
2023/07/10 17:28:29;;;;;;;9.63;7.72;;;;;;;28.39;38.37;99171.09;5085426;28;20086;-67
2023/07/10 17:30:58;;;;;;;6.60;5.88;;;;;;;28.38;38.95;99158.53;5084866;28;20311;-67
2023/07/10 17:33:36;;;;;;;8.27;5.45;;;;;;;28.38;38.64;99141.31;5085077;28;20050;-68
2023/07/10 17:36:04;;;;;;;6.93;5.38;;;;;;;28.38;38.63;99142.16;5085241;28;20049;-68
2023/07/10 17:38:32;;;;;;;7.40;5.85;;;;;;;28.37;39.01;99145.94;5085090;28;20372;-68
2023/07/10 17:41:02;;;;;;;7.97;5.63;;;;;;;28.31;39.58;99156.81;5085077;28;20098;-68
2023/07/10 17:43:31;;;;;;;8.65;6.38;;;;;;;28.27;39.18;99161.00;5085120;28;20059;-67
2023/07/10 17:45:58;;;;;;;7.47;5.68;;;;;;;28.21;39.50;99149.00;5085383;28;20064;-68
2023/07/10 17:48:25;;;;;;;6.50;5.78;;;;;;;28.29;39.33;99159.75;5085056;28;20124;-67
2023/07/10 17:50:55;;;;;;;7.82;5.88;;;;;;;28.37;39.07;99158.72;5084912;28;20086;-68
2023/07/10 17:53:24;;;;;;;8.10;6.70;;;;;;;28.34;39.69;99157.25;5084771;28;20098;-67
2023/07/10 17:55:51;;;;;;;9.05;5.85;;;;;;;28.34;39.85;99165.41;5085039;28;20040;-68
2023/07/10 17:58:22;;;;;;;9.18;6.78;;;;;;;28.18;40.40;99165.78;5084627;28;20056;-69
2023/07/10 18:00:52;;;;;;;7.90;6.47;;;;;;;27.93;40.50;99131.91;5088053;28;20045;-69
2023/07/10 18:03:23;;;;;;;8.77;6.38;;;;;;;28.27;40.22;99163.72;5088646;28;20235;-69
2023/07/10 18:05:52;;;;;;;8.38;6.00;;;;;;;28.17;40.02;99142.28;5088760;28;20044;-69
2023/07/10 18:08:22;;;;;;;6.97;6.18;;;;;;;28.13;40.36;99150.03;5088351;28;20052;-69
2023/07/10 18:10:51;;;;;;;8.65;6.07;;;;;;;28.17;40.10;99165.97;5089123;28;20379;-69
2023/07/10 18:13:28;;;;;;;6.95;6.15;;;;;;;28.17;40.27;99161.38;5087865;28;20051;-68
2023/07/10 18:15:55;;;;;;;6.82;5.43;;;;;;;28.20;39.88;99171.00;5088528;28;20049;-69
2023/07/10 18:18:23;;;;;;;9.93;5.82;;;;;;;28.11;40.61;99164.91;5088447;28;20044;-68
2023/07/10 18:20:50;;;;;;;8.70;6.57;;;;;;;28.03;40.29;99168.63;5088445;28;20044;-69
2023/07/10 18:23:23;;;;;;;9.95;5.40;;;;;;;27.49;40.54;99084.88;5088731;28;20059;-68
2023/07/10 18:25:52;;;;;;;7.95;6.40;;;;;;;28.11;39.84;99187.53;5088460;28;20036;-69
2023/07/10 18:28:26;;;;;;;6.60;5.90;;;;;;;28.00;39.62;99189.97;5088392;28;20040;-68
2023/07/10 18:30:56;;;;;;;6.38;5.63;;;;;;;28.01;39.56;99191.66;5088101;28;20324;-69
2023/07/10 18:33:26;;;;;;;6.68;5.32;;;;;;;27.88;40.00;99194.31;5087942;28;20052;-69
2023/07/10 18:35:56;;;;;;;8.63;6.32;;;;;;;27.81;40.31;99186.91;5087744;28;20067;-69
2023/07/10 18:38:26;;;;;;;7.30;5.78;;;;;;;27.54;40.36;99185.00;5088564;28;20047;-69
2023/07/10 18:40:56;;;;;;;9.07;6.15;;;;;;;27.67;40.75;99181.56;5087835;28;20052;-69
2023/07/10 18:43:30;;;;;;;7.40;5.35;;;;;;;27.61;41.12;99191.38;5088138;28;20200;-69
2023/07/10 18:45:58;;;;;;;7.32;5.60;;;;;;;27.69;40.83;99195.81;5088055;28;20040;-69
2023/07/10 18:48:29;;;;;;;8.88;5.78;;;;;;;27.67;40.65;99197.91;5088459;28;20292;-69
2023/07/10 18:51:01;;;;;;;6.50;5.72;;;;;;;27.65;40.90;99194.53;5087530;28;20040;-69
2023/07/10 18:53:30;;;;;;;10.88;5.38;;;;;;;27.66;41.00;99207.94;5087581;28;20305;-68
2023/07/10 18:55:58;;;;;;;8.52;6.35;;;;;;;27.59;40.90;99206.19;5087682;28;20184;-69
2023/07/10 18:58:29;;;;;;;10.10;6.18;;;;;;;27.68;40.61;99205.03;5087358;28;20372;-69
2023/07/10 19:00:57;;;;;;;12.00;5.88;;;;;;;27.62;41.01;99200.38;5087452;28;20114;-69
2023/07/10 19:03:26;;;;;;;7.60;5.85;;;;;;;27.44;41.40;99198.94;5087461;28;20045;-69
2023/07/10 19:05:55;;;;;;;11.40;7.43;;;;;;;27.64;41.27;99203.75;5087706;28;20047;-69
2023/07/10 19:08:24;;;;;;;6.80;5.60;;;;;;;27.63;40.95;99211.06;5087362;28;20046;-69
2023/07/10 19:10:53;;;;;;;10.38;6.25;;;;;;;27.34;41.63;99184.00;5087832;28;20047;-68
2023/07/10 19:13:22;;;;;;;7.18;5.95;;;;;;;27.47;41.28;99209.44;5087162;28;20055;-69
2023/07/10 19:15:54;;;;;;;7.22;5.80;;;;;;;27.43;41.23;99202.69;5087173;28;20169;-69
2023/07/10 19:18:27;;;;;;;6.78;6.07;;;;;;;27.46;40.95;99206.91;5087215;28;20044;-69
2023/07/10 19:20:55;;;;;;;7.40;6.27;;;;;;;27.37;41.46;99192.59;5087290;28;20074;-68
2023/07/10 19:23:24;;;;;;;6.43;5.82;;;;;;;27.34;41.60;99195.72;5087527;28;20116;-68
2023/07/10 19:25:52;;;;;;;11.02;6.68;;;;;;;27.50;41.15;99211.78;5087383;28;20048;-69
2023/07/10 19:28:21;;;;;;;8.18;6.03;;;;;;;27.42;41.44;99205.63;5087331;28;20060;-69
2023/07/10 19:30:54;;;;;;;8.13;6.35;;;;;;;27.43;41.52;99201.88;5087270;28;20283;-69
2023/07/10 19:33:25;;;;;;;10.40;6.30;;;;;;;27.35;41.94;99207.44;5086986;28;20116;-69
2023/07/10 19:35:52;;;;;;;7.38;6.60;;;;;;;27.34;41.93;99213.94;5086233;28;20094;-69
2023/07/10 19:38:22;;;;;;;10.55;7.00;;;;;;;27.04;41.54;99164.22;5086642;28;20119;-69
2023/07/10 19:40:52;;;;;;;7.60;6.70;;;;;;;27.30;42.00;99204.47;5086749;28;20104;-69
2023/07/10 19:43:20;;;;;;;14.15;5.80;;;;;;;27.27;41.68;99202.97;5086523;28;20052;-68
2023/07/10 19:45:48;;;;;;;16.95;6.90;;;;;;;27.28;41.88;99198.38;5086791;28;20033;-69
2023/07/10 19:48:21;;;;;;;9.00;6.93;;;;;;;26.77;42.13;99104.16;5087451;28;20053;-69
2023/07/10 19:50:50;;;;;;;8.63;6.80;;;;;;;27.33;42.37;99204.91;5085678;28;20032;-69
2023/07/10 19:53:19;;;;;;;7.22;6.43;;;;;;;27.31;41.93;99212.44;5085721;28;20047;-69
2023/07/10 19:55:49;;;;;;;9.57;6.82;;;;;;;27.31;42.42;99198.84;5086674;28;20052;-69
2023/07/10 19:58:21;;;;;;;9.02;6.13;;;;;;;27.22;42.62;99189.09;5085752;28;20086;-69
2023/07/10 20:00:48;;;;;;;10.13;6.65;;;;;;;27.18;42.47;99195.97;5086591;28;20060;-68
2023/07/10 20:03:23;;;;;;;10.60;6.95;;;;;;;27.19;42.81;99194.94;5086515;28;20101;-69
2023/07/10 20:05:52;;;;;;;8.52;6.00;;;;;;;27.17;42.95;99192.41;5085193;28;20052;-69
2023/07/10 20:08:21;;;;;;;7.70;6.35;;;;;;;27.10;43.09;99187.94;5085230;28;20048;-69
2023/07/10 20:10:50;;;;;;;11.23;9.93;;;;;;;27.12;42.79;99189.41;5086355;28;20052;-69
2023/07/10 20:13:19;;;;;;;8.80;7.78;;;;;;;27.09;43.18;99187.09;5085860;28;20071;-69
2023/07/10 20:15:50;;;;;;;7.25;6.43;;;;;;;27.13;43.19;99192.97;5085885;28;20036;-69
2023/07/10 20:18:26;;;;;;;8.88;6.53;;;;;;;27.15;43.22;99194.47;5086000;28;20093;-68
2023/07/10 20:20:54;;;;;;;8.38;6.47;;;;;;;27.17;43.54;99205.16;5086171;28;20103;-69
2023/07/10 20:23:23;;;;;;;10.98;6.88;;;;;;;27.11;43.67;99208.66;5085661;28;20052;-69
2023/07/10 20:25:51;;;;;;;9.02;7.07;;;;;;;27.05;43.53;99215.72;5086231;28;20086;-68
2023/07/10 20:28:21;;;;;;;8.75;7.82;;;;;;;26.51;43.73;99123.72;5084887;28;20040;-68
2023/07/10 20:30:50;;;;;;;9.10;6.97;;;;;;;27.13;44.29;99206.59;5085958;28;20049;-68
2023/07/10 20:33:20;;;;;;;10.32;7.70;;;;;;;27.11;44.26;99197.78;5085206;28;20048;-68
2023/07/10 20:35:48;;;;;;;8.10;7.22;;;;;;;27.17;44.15;99199.72;5085917;28;20036;-69
2023/07/10 20:38:18;;;;;;;11.48;7.22;;;;;;;27.21;44.26;99197.44;5086174;28;20115;-67
2023/07/10 20:40:45;;;;;;;7.57;6.05;;;;;;;27.14;43.89;99191.94;5085630;28;20283;-68
2023/07/10 20:43:14;;;;;;;7.88;7.10;;;;;;;27.21;44.20;99195.56;5085587;28;20103;-68
2023/07/10 20:45:43;;;;;;;7.85;7.05;;;;;;;27.07;44.19;99182.88;5085831;28;20204;-69
2023/07/10 20:48:19;;;;;;;10.32;6.15;;;;;;;27.14;43.93;99206.38;5086235;28;20044;-68
2023/07/10 20:50:48;;;;;;;9.07;7.95;;;;;;;27.19;44.22;99208.53;5085590;28;20052;-68
2023/07/10 20:53:15;;;;;;;8.60;6.35;;;;;;;27.08;43.97;99192.72;5085851;28;20102;-68
2023/07/10 20:55:44;;;;;;;8.93;5.97;;;;;;;27.16;44.02;99203.47;5086089;28;20204;-68
2023/07/10 20:58:16;;;;;;;8.63;6.72;;;;;;;27.12;44.00;99204.91;5085577;28;20067;-68
2023/07/10 21:00:43;;;;;;;8.30;6.95;;;;;;;27.07;44.71;99210.91;5085858;28;20036;-68
2023/07/10 21:03:15;;;;;;;7.90;7.10;;;;;;;27.06;44.91;99211.97;5085772;28;20052;-69
2023/07/10 21:05:42;;;;;;;9.48;7.03;;;;;;;27.12;45.19;99205.75;5086058;28;20036;-68
2023/07/10 21:08:17;;;;;;;8.45;7.55;;;;;;;27.08;45.44;99212.59;5085721;28;20044;-69
2023/07/10 21:10:44;;;;;;;8.07;6.88;;;;;;;27.03;45.53;99214.22;5085739;28;20318;-68
2023/07/10 21:13:13;;;;;;;9.93;6.90;;;;;;;27.02;45.31;99215.25;5085452;28;20110;-68
2023/07/10 21:15:39;;;;;;;9.13;6.97;;;;;;;27.05;45.03;99220.31;5085869;28;20032;-68
2023/07/10 21:18:10;;;;;;;8.95;5.97;;;;;;;27.02;45.16;99217.97;5085600;28;20052;-67
2023/07/10 21:20:37;;;;;;;8.07;5.60;;;;;;;26.89;45.47;99213.25;5085560;28;20047;-68
2023/07/10 21:23:15;;;;;;;7.70;5.72;;;;;;;26.89;45.32;99205.09;5085857;28;20045;-68
2023/07/10 21:25:43;;;;;;;7.18;5.63;;;;;;;26.84;45.89;99202.94;5085313;28;20044;-68
2023/07/10 21:28:20;;;;;;;6.75;5.35;;;;;;;26.81;45.79;99203.31;5085323;28;20040;-69
2023/07/10 21:30:47;;;;;;;6.63;4.90;;;;;;;26.79;45.85;99204.56;5085523;28;20103;-68
2023/07/10 21:33:18;;;;;;;8.05;5.70;;;;;;;26.71;45.86;99213.66;5085763;28;20044;-68
2023/07/10 21:35:45;;;;;;;5.75;5.05;;;;;;;26.85;45.61;99198.34;5089222;28;20158;-68
2023/07/10 21:38:11;;;;;;;6.57;5.28;;;;;;;26.76;45.91;99202.22;5089788;28;20051;-68
2023/07/10 21:40:39;;;;;;;6.45;5.32;;;;;;;26.71;46.15;99196.50;5089422;28;20052;-68
2023/07/10 21:43:14;;;;;;;10.10;5.43;;;;;;;26.67;45.65;99195.22;5089428;28;20045;-68
2023/07/10 21:45:41;;;;;;;6.13;4.88;;;;;;;26.53;46.49;99192.31;5089632;28;20048;-68
2023/07/10 21:48:15;;;;;;;9.13;5.68;;;;;;;26.49;46.40;99199.16;5089301;28;20097;-68
2023/07/10 21:50:42;;;;;;;8.35;6.50;;;;;;;26.50;46.72;99217.16;5089228;28;20268;-70
2023/07/10 21:53:09;;;;;;;8.10;6.45;;;;;;;26.49;47.14;99222.78;5089470;28;20052;-68
2023/07/10 21:55:36;;;;;;;7.57;5.47;;;;;;;26.49;46.83;99223.63;5089325;28;20044;-68
2023/07/10 21:58:04;;;;;;;5.97;5.10;;;;;;;26.44;47.13;99220.63;5089148;28;20040;-68
2023/07/10 22:00:32;;;;;;;7.22;5.38;;;;;;;26.50;47.01;99210.88;5088827;28;20056;-68
2023/07/10 22:02:59;;;;;;;8.70;6.07;;;;;;;26.43;46.68;99218.09;5089337;28;20044;-68
2023/07/10 22:05:25;;;;;;;8.98;6.38;;;;;;;26.50;46.58;99214.44;5088938;28;20413;-68
2023/07/10 22:07:52;;;;;;;10.55;7.00;;;;;;;26.56;46.51;99212.81;5089700;28;20277;-68
2023/07/10 22:10:19;;;;;;;7.32;5.53;;;;;;;26.50;46.79;99224.47;5088864;28;20048;-68
2023/07/10 22:12:45;;;;;;;6.40;5.80;;;;;;;26.51;46.01;99212.56;5088497;28;20068;-68
2023/07/10 22:15:21;;;;;;;7.35;5.75;;;;;;;26.42;46.59;99228.13;5087567;28;20048;-69
2023/07/10 22:17:49;;;;;;;6.88;5.80;;;;;;;26.44;46.62;99228.78;5088741;28;20041;-69
2023/07/10 22:20:18;;;;;;;5.88;5.28;;;;;;;26.42;46.33;99228.13;5088694;28;20284;-68
2023/07/10 22:22:45;;;;;;;5.20;4.68;;;;;;;26.46;46.30;99224.00;5088634;28;20232;-68
2023/07/10 22:25:14;;;;;;;8.60;5.65;;;;;;;26.34;46.47;99221.94;5088318;28;20094;-67
2023/07/10 22:27:40;;;;;;;6.75;4.68;;;;;;;26.36;46.50;99219.88;5088622;28;20040;-67
2023/07/10 22:30:09;;;;;;;6.88;4.97;;;;;;;26.34;46.24;99222.78;5088726;28;20049;-68
2023/07/10 22:32:35;;;;;;;9.43;5.60;;;;;;;26.18;46.34;99203.97;5088350;28;20378;-68
2023/07/10 22:35:04;;;;;;;7.95;4.75;;;;;;;26.32;46.19;99224.00;5087205;28;20040;-68
2023/07/10 22:37:30;;;;;;;7.70;5.07;;;;;;;26.27;46.26;99231.88;5088396;28;20044;-67
2023/07/10 22:39:57;;;;;;;6.75;4.53;;;;;;;26.24;46.67;99224.97;5088239;28;20113;-69
2023/07/10 22:42:24;;;;;;;5.40;4.72;;;;;;;26.14;46.88;99233.38;5087967;28;20093;-68
2023/07/10 22:44:51;;;;;;;7.57;5.45;;;;;;;26.26;46.48;99228.31;5088035;28;20044;-69
2023/07/10 22:47:17;;;;;;;6.90;5.28;;;;;;;26.29;46.61;99229.81;5088526;28;20060;-68
2023/07/10 22:49:44;;;;;;;6.43;4.40;;;;;;;26.23;46.10;99226.81;5088356;28;20044;-69
2023/07/10 22:52:12;;;;;;;7.63;4.85;;;;;;;26.19;46.39;99233.66;5087852;28;20296;-69
2023/07/10 22:54:39;;;;;;;7.03;4.82;;;;;;;26.18;46.01;99231.13;5088080;28;20052;-68
2023/07/10 22:57:06;;;;;;;6.85;4.47;;;;;;;26.33;45.64;99237.41;5088266;28;20036;-69
2023/07/10 22:59:33;;;;;;;7.45;5.10;;;;;;;26.19;46.11;99235.53;5087766;28;20040;-68
2023/07/10 23:01:59;;;;;;;7.10;4.40;;;;;;;26.21;46.48;99241.63;5088275;28;20052;-69
2023/07/10 23:04:26;;;;;;;6.30;4.30;;;;;;;26.20;46.32;99248.94;5087553;28;20293;-68
2023/07/10 23:07:00;;;;;;;5.65;4.72;;;;;;;26.21;46.19;99245.19;5087773;28;20052;-69
2023/07/10 23:09:28;;;;;;;9.68;4.97;;;;;;;26.13;46.32;99247.16;5088090;28;20044;-68
2023/07/10 23:11:55;;;;;;;9.18;5.13;;;;;;;26.16;46.22;99244.91;5088105;28;20090;-69
2023/07/10 23:14:21;;;;;;;6.70;4.47;;;;;;;26.21;46.36;99247.06;5086627;28;20063;-69
2023/07/10 23:16:48;;;;;;;6.28;4.80;;;;;;;26.23;46.16;99245.84;5087616;28;20048;-69
2023/07/10 23:19:15;;;;;;;5.88;4.30;;;;;;;26.18;46.65;99245.56;5087376;28;20044;-69
2023/07/10 23:21:41;;;;;;;5.30;4.18;;;;;;;26.23;46.44;99251.28;5087840;28;20049;-68
2023/07/10 23:24:09;;;;;;;6.40;4.55;;;;;;;26.21;46.92;99250.63;5087491;28;20052;-69
2023/07/10 23:26:37;;;;;;;8.52;4.75;;;;;;;26.10;47.12;99248.38;5087180;28;20040;-68
2023/07/10 23:29:04;;;;;;;7.38;4.90;;;;;;;26.10;47.12;99259.22;5087471;28;20289;-68
2023/07/10 23:31:33;;;;;;;8.15;5.50;;;;;;;26.09;47.57;99273.00;5087416;28;20052;-68
2023/07/10 23:34:00;;;;;;;7.47;5.00;;;;;;;26.08;47.59;99264.00;5087300;28;20048;-68
2023/07/10 23:36:28;;;;;;;7.03;5.63;;;;;;;26.09;47.77;99260.25;5086412;28;20323;-68
2023/07/10 23:38:56;;;;;;;7.82;5.80;;;;;;;26.12;47.94;99268.03;5087199;28;20135;-69
2023/07/10 23:41:22;;;;;;;8.25;5.30;;;;;;;26.12;47.89;99269.91;5087211;28;20040;-68
2023/07/10 23:43:50;;;;;;;7.05;4.88;;;;;;;26.11;48.02;99265.50;5086853;28;20044;-68
2023/07/10 23:46:17;;;;;;;10.35;5.43;;;;;;;26.11;47.91;99260.06;5086274;28;20181;-68
2023/07/10 23:48:44;;;;;;;6.65;4.70;;;;;;;26.08;47.95;99271.31;5087031;28;20097;-69
2023/07/10 23:51:10;;;;;;;7.97;5.55;;;;;;;26.10;47.84;99269.25;5087241;28;20032;-68
2023/07/10 23:53:37;;;;;;;6.82;5.03;;;;;;;26.07;47.87;99270.47;5086916;28;20224;-68
2023/07/10 23:56:04;;;;;;;6.63;5.07;;;;;;;26.05;47.65;99258.94;5087045;28;20041;-68
2023/07/10 23:58:31;;;;;;;7.32;5.10;;;;;;;25.96;48.43;99261.91;5085916;28;20044;-68
